sensor_id;sensor_type;location;lat;lon;timestamp;pressure;altitude;pressure_sealevel;temperature;humidity
60371;BME280;48550;40.588;49.684;2023-07-16T00:01:06;101100.91;;;24.73;100.00
60371;BME280;48550;40.588;49.684;2023-07-16T00:03:31;101110.44;;;24.75;100.00
60371;BME280;48550;40.588;49.684;2023-07-16T00:05:57;101103.34;;;24.74;100.00
60371;BME280;48550;40.588;49.684;2023-07-16T00:08:23;101106.56;;;24.76;100.00
60371;BME280;48550;40.588;49.684;2023-07-16T00:10:48;101103.03;;;24.76;100.00
60371;BME280;48550;40.588;49.684;2023-07-16T00:13:14;101108.19;;;24.77;100.00
60371;BME280;48550;40.588;49.684;2023-07-16T00:15:40;101102.88;;;24.81;100.00
60371;BME280;48550;40.588;49.684;2023-07-16T00:18:05;101100.94;;;24.81;100.00
60371;BME280;48550;40.588;49.684;2023-07-16T00:20:32;101106.91;;;24.83;100.00
60371;BME280;48550;40.588;49.684;2023-07-16T00:22:58;101117.59;;;24.85;100.00
60371;BME280;48550;40.588;49.684;2023-07-16T00:25:23;101130.50;;;24.84;100.00
60371;BME280;48550;40.588;49.684;2023-07-16T00:27:49;101118.88;;;24.87;100.00
60371;BME280;48550;40.588;49.684;2023-07-16T00:30:15;101110.00;;;24.90;100.00
60371;BME280;48550;40.588;49.684;2023-07-16T00:32:40;101123.56;;;24.87;100.00
60371;BME280;48550;40.588;49.684;2023-07-16T00:35:06;101095.63;;;24.93;100.00
60371;BME280;48550;40.588;49.684;2023-07-16T00:37:34;101100.50;;;24.96;100.00
60371;BME280;48550;40.588;49.684;2023-07-16T00:39:59;101112.00;;;24.98;100.00
60371;BME280;48550;40.588;49.684;2023-07-16T00:42:25;101112.16;;;25.02;100.00
60371;BME280;48550;40.588;49.684;2023-07-16T00:44:51;101112.31;;;25.06;100.00
60371;BME280;48550;40.588;49.684;2023-07-16T00:47:16;101103.78;;;25.07;100.00
60371;BME280;48550;40.588;49.684;2023-07-16T00:49:42;101115.25;;;25.09;100.00
60371;BME280;48550;40.588;49.684;2023-07-16T00:52:11;101114.59;;;25.12;100.00
60371;BME280;48550;40.588;49.684;2023-07-16T00:54:39;101117.84;;;25.14;100.00
60371;BME280;48550;40.588;49.684;2023-07-16T00:57:07;101113.97;;;25.24;100.00
60371;BME280;48550;40.588;49.684;2023-07-16T00:59:33;101119.47;;;25.24;100.00
60371;BME280;48550;40.588;49.684;2023-07-16T01:01:59;101121.28;;;25.28;100.00
60371;BME280;48550;40.588;49.684;2023-07-16T01:04:24;101141.81;;;25.31;100.00
60371;BME280;48550;40.588;49.684;2023-07-16T01:06:53;101133.72;;;25.34;100.00
60371;BME280;48550;40.588;49.684;2023-07-16T01:09:21;101139.72;;;25.37;100.00
60371;BME280;48550;40.588;49.684;2023-07-16T01:11:48;101148.94;;;25.41;100.00
60371;BME280;48550;40.588;49.684;2023-07-16T01:14:16;101149.56;;;25.38;100.00
60371;BME280;48550;40.588;49.684;2023-07-16T01:16:43;101146.50;;;25.39;100.00
60371;BME280;48550;40.588;49.684;2023-07-16T01:19:09;101154.09;;;25.42;100.00
60371;BME280;48550;40.588;49.684;2023-07-16T01:30:15;101172.38;;;25.47;100.00
60371;BME280;48550;40.588;49.684;2023-07-16T01:32:43;101180.47;;;25.52;100.00
60371;BME280;48550;40.588;49.684;2023-07-16T01:35:10;101181.59;;;25.51;100.00
60371;BME280;48550;40.588;49.684;2023-07-16T01:37:36;101181.44;;;25.56;100.00
60371;BME280;48550;40.588;49.684;2023-07-16T01:40:02;101185.94;;;25.52;100.00
60371;BME280;48550;40.588;49.684;2023-07-16T01:42:29;101176.09;;;25.51;100.00
60371;BME280;48550;40.588;49.684;2023-07-16T01:44:54;101187.09;;;25.51;100.00
60371;BME280;48550;40.588;49.684;2023-07-16T01:47:24;101179.97;;;25.50;100.00
60371;BME280;48550;40.588;49.684;2023-07-16T01:49:56;101188.22;;;25.58;100.00
60371;BME280;48550;40.588;49.684;2023-07-16T01:52:22;101198.09;;;25.59;100.00
60371;BME280;48550;40.588;49.684;2023-07-16T01:54:47;101206.50;;;25.63;100.00
60371;BME280;48550;40.588;49.684;2023-07-16T01:57:13;101196.63;;;25.62;100.00
60371;BME280;48550;40.588;49.684;2023-07-16T01:59:39;101200.88;;;25.68;100.00
60371;BME280;48550;40.588;49.684;2023-07-16T02:02:05;101184.06;;;25.70;100.00
60371;BME280;48550;40.588;49.684;2023-07-16T02:04:31;101182.91;;;25.79;100.00
60371;BME280;48550;40.588;49.684;2023-07-16T02:06:57;101198.78;;;25.82;100.00
60371;BME280;48550;40.588;49.684;2023-07-16T02:09:22;101197.97;;;25.82;100.00
60371;BME280;48550;40.588;49.684;2023-07-16T02:11:48;101203.78;;;25.80;100.00
60371;BME280;48550;40.588;49.684;2023-07-16T02:14:14;101205.72;;;25.80;100.00
60371;BME280;48550;40.588;49.684;2023-07-16T02:16:41;101206.22;;;25.82;100.00
60371;BME280;48550;40.588;49.684;2023-07-16T02:19:07;101220.44;;;25.84;100.00
60371;BME280;48550;40.588;49.684;2023-07-16T02:21:32;101216.88;;;25.83;100.00
60371;BME280;48550;40.588;49.684;2023-07-16T02:23:58;101233.88;;;25.77;100.00
60371;BME280;48550;40.588;49.684;2023-07-16T02:26:24;101225.63;;;25.77;100.00
60371;BME280;48550;40.588;49.684;2023-07-16T02:28:49;101227.88;;;25.75;100.00
60371;BME280;48550;40.588;49.684;2023-07-16T02:31:15;101229.81;;;25.83;100.00
60371;BME280;48550;40.588;49.684;2023-07-16T02:33:41;101227.41;;;25.81;100.00
60371;BME280;48550;40.588;49.684;2023-07-16T02:36:06;101224.50;;;25.86;100.00
60371;BME280;48550;40.588;49.684;2023-07-16T02:38:32;101238.41;;;25.90;100.00
60371;BME280;48550;40.588;49.684;2023-07-16T02:40:58;101234.69;;;25.86;100.00
60371;BME280;48550;40.588;49.684;2023-07-16T02:43:24;101258.78;;;25.80;100.00
60371;BME280;48550;40.588;49.684;2023-07-16T02:45:49;101255.38;;;25.83;100.00
60371;BME280;48550;40.588;49.684;2023-07-16T02:48:15;101252.78;;;25.78;100.00
60371;BME280;48550;40.588;49.684;2023-07-16T02:50:41;101241.63;;;25.92;100.00
60371;BME280;48550;40.588;49.684;2023-07-16T02:53:07;101241.81;;;25.87;100.00
60371;BME280;48550;40.588;49.684;2023-07-16T02:55:35;101229.66;;;25.88;100.00
60371;BME280;48550;40.588;49.684;2023-07-16T02:58:01;101235.50;;;25.86;100.00
60371;BME280;48550;40.588;49.684;2023-07-16T03:00:30;101225.13;;;25.83;100.00
60371;BME280;48550;40.588;49.684;2023-07-16T03:02:57;101246.16;;;25.96;100.00
60371;BME280;48550;40.588;49.684;2023-07-16T03:05:24;101246.50;;;25.95;100.00
60371;BME280;48550;40.588;49.684;2023-07-16T03:07:50;101254.75;;;25.95;100.00
60371;BME280;48550;40.588;49.684;2023-07-16T03:10:16;101260.59;;;26.02;100.00
60371;BME280;48550;40.588;49.684;2023-07-16T03:12:41;101262.34;;;25.98;100.00
60371;BME280;48550;40.588;49.684;2023-07-16T03:15:08;101256.84;;;25.98;100.00
60371;BME280;48550;40.588;49.684;2023-07-16T03:17:33;101255.22;;;25.88;100.00
60371;BME280;48550;40.588;49.684;2023-07-16T03:19:59;101268.16;;;25.88;100.00
60371;BME280;48550;40.588;49.684;2023-07-16T03:22:25;101261.06;;;25.95;100.00
60371;BME280;48550;40.588;49.684;2023-07-16T03:24:50;101271.25;;;25.95;100.00
60371;BME280;48550;40.588;49.684;2023-07-16T03:27:16;101276.41;;;25.96;100.00
60371;BME280;48550;40.588;49.684;2023-07-16T03:29:42;101275.44;;;25.92;100.00
60371;BME280;48550;40.588;49.684;2023-07-16T03:32:08;101277.66;;;25.64;100.00
60371;BME280;48550;40.588;49.684;2023-07-16T03:34:33;101274.63;;;25.66;100.00
60371;BME280;48550;40.588;49.684;2023-07-16T03:36:59;101274.31;;;25.85;100.00
60371;BME280;48550;40.588;49.684;2023-07-16T03:39:25;101269.97;;;26.01;100.00
60371;BME280;48550;40.588;49.684;2023-07-16T03:41:50;101264.97;;;26.20;100.00
60371;BME280;48550;40.588;49.684;2023-07-16T03:44:16;101275.31;;;26.23;100.00
60371;BME280;48550;40.588;49.684;2023-07-16T03:46:42;101283.56;;;26.23;100.00
60371;BME280;48550;40.588;49.684;2023-07-16T03:49:08;101275.47;;;26.18;100.00
60371;BME280;48550;40.588;49.684;2023-07-16T03:51:34;101282.28;;;26.12;100.00
60371;BME280;48550;40.588;49.684;2023-07-16T03:53:59;101285.53;;;26.14;100.00
60371;BME280;48550;40.588;49.684;2023-07-16T03:56:25;101286.16;;;26.11;100.00
60371;BME280;48550;40.588;49.684;2023-07-16T03:58:51;101291.50;;;26.08;100.00
60371;BME280;48550;40.588;49.684;2023-07-16T04:01:16;101281.00;;;26.18;100.00
60371;BME280;48550;40.588;49.684;2023-07-16T04:03:42;101285.47;;;25.97;100.00
60371;BME280;48550;40.588;49.684;2023-07-16T04:06:10;101284.03;;;26.00;100.00
60371;BME280;48550;40.588;49.684;2023-07-16T04:08:36;101296.34;;;26.02;100.00
60371;BME280;48550;40.588;49.684;2023-07-16T04:11:04;101294.22;;;25.90;100.00
60371;BME280;48550;40.588;49.684;2023-07-16T04:13:31;101296.19;;;26.07;100.00
60371;BME280;48550;40.588;49.684;2023-07-16T04:15:57;101300.72;;;26.29;100.00
60371;BME280;48550;40.588;49.684;2023-07-16T04:18:24;101306.56;;;26.10;100.00
60371;BME280;48550;40.588;49.684;2023-07-16T04:20:50;101314.28;;;26.00;100.00
60371;BME280;48550;40.588;49.684;2023-07-16T04:23:16;101315.41;;;25.98;100.00
60371;BME280;48550;40.588;49.684;2023-07-16T04:25:41;101311.84;;;25.98;100.00
60371;BME280;48550;40.588;49.684;2023-07-16T04:28:07;101318.06;;;26.21;100.00
60371;BME280;48550;40.588;49.684;2023-07-16T04:30:33;101319.03;;;26.25;100.00
60371;BME280;48550;40.588;49.684;2023-07-16T04:32:59;101301.50;;;26.73;100.00
60371;BME280;48550;40.588;49.684;2023-07-16T04:35:24;101309.00;;;26.46;100.00
60371;BME280;48550;40.588;49.684;2023-07-16T04:37:50;101303.94;;;26.74;100.00
60371;BME280;48550;40.588;49.684;2023-07-16T04:40:16;101309.97;;;26.33;100.00
60371;BME280;48550;40.588;49.684;2023-07-16T04:42:41;101305.72;;;26.79;100.00
60371;BME280;48550;40.588;49.684;2023-07-16T04:45:07;101305.69;;;26.96;100.00
60371;BME280;48550;40.588;49.684;2023-07-16T04:47:33;101313.94;;;27.05;100.00
60371;BME280;48550;40.588;49.684;2023-07-16T04:49:59;101314.91;;;27.85;100.00
60371;BME280;48550;40.588;49.684;2023-07-16T04:52:25;101319.94;;;27.07;100.00
60371;BME280;48550;40.588;49.684;2023-07-16T04:54:51;101321.44;;;26.61;100.00
60371;BME280;48550;40.588;49.684;2023-07-16T04:57:16;101321.44;;;26.61;100.00
60371;BME280;48550;40.588;49.684;2023-07-16T04:59:42;101323.56;;;26.38;100.00
60371;BME280;48550;40.588;49.684;2023-07-16T05:02:08;101321.28;;;26.32;100.00
60371;BME280;48550;40.588;49.684;2023-07-16T05:04:34;101331.97;;;26.24;100.00
60371;BME280;48550;40.588;49.684;2023-07-16T05:07:04;101327.91;;;26.13;100.00
60371;BME280;48550;40.588;49.684;2023-07-16T05:09:30;101323.88;;;26.11;100.00
60371;BME280;48550;40.588;49.684;2023-07-16T05:11:56;101332.13;;;26.19;100.00
60371;BME280;48550;40.588;49.684;2023-07-16T05:14:21;101324.69;;;26.11;100.00
60371;BME280;48550;40.588;49.684;2023-07-16T05:16:47;101322.56;;;26.17;100.00
60371;BME280;48550;40.588;49.684;2023-07-16T05:19:13;101324.69;;;26.20;100.00
60371;BME280;48550;40.588;49.684;2023-07-16T05:21:38;101325.81;;;26.19;100.00
60371;BME280;48550;40.588;49.684;2023-07-16T05:24:04;101329.69;;;26.09;100.00
60371;BME280;48550;40.588;49.684;2023-07-16T05:26:30;101316.69;;;25.75;100.00
60371;BME280;48550;40.588;49.684;2023-07-16T05:28:56;101311.50;;;25.74;100.00
60371;BME280;48550;40.588;49.684;2023-07-16T05:31:22;101318.63;;;25.75;100.00
60371;BME280;48550;40.588;49.684;2023-07-16T05:33:47;101317.81;;;25.83;100.00
60371;BME280;48550;40.588;49.684;2023-07-16T05:36:13;101318.16;;;25.81;100.00
60371;BME280;48550;40.588;49.684;2023-07-16T05:38:39;101321.41;;;25.92;100.00
60371;BME280;48550;40.588;49.684;2023-07-16T05:41:05;101312.66;;;25.90;100.00
60371;BME280;48550;40.588;49.684;2023-07-16T05:43:31;101318.53;;;26.06;100.00
60371;BME280;48550;40.588;49.684;2023-07-16T05:45:57;101318.50;;;25.97;100.00
60371;BME280;48550;40.588;49.684;2023-07-16T05:48:24;101326.09;;;25.91;100.00
60371;BME280;48550;40.588;49.684;2023-07-16T05:50:50;101338.13;;;26.21;100.00
60371;BME280;48550;40.588;49.684;2023-07-16T05:53:15;101334.41;;;26.17;100.00
60371;BME280;48550;40.588;49.684;2023-07-16T05:55:42;101336.69;;;26.33;100.00
60371;BME280;48550;40.588;49.684;2023-07-16T05:58:08;101330.19;;;26.28;100.00
60371;BME280;48550;40.588;49.684;2023-07-16T06:00:37;101336.22;;;26.39;100.00
60371;BME280;48550;40.588;49.684;2023-07-16T06:03:03;101334.59;;;26.47;100.00
60371;BME280;48550;40.588;49.684;2023-07-16T06:05:29;101336.38;;;26.51;100.00
60371;BME280;48550;40.588;49.684;2023-07-16T06:08:00;101330.69;;;26.39;100.00
60371;BME280;48550;40.588;49.684;2023-07-16T06:10:26;101329.22;;;26.24;100.00
60371;BME280;48550;40.588;49.684;2023-07-16T06:12:51;101328.28;;;26.38;100.00
60371;BME280;48550;40.588;49.684;2023-07-16T06:15:17;101330.53;;;26.44;100.00
60371;BME280;48550;40.588;49.684;2023-07-16T06:17:43;101328.88;;;26.86;100.00
60371;BME280;48550;40.588;49.684;2023-07-16T06:20:08;101321.59;;;26.82;100.00
60371;BME280;48550;40.588;49.684;2023-07-16T06:22:34;101327.47;;;27.27;100.00
60371;BME280;48550;40.588;49.684;2023-07-16T06:25:00;101314.34;;;27.71;100.00
60371;BME280;48550;40.588;49.684;2023-07-16T06:27:26;101313.28;;;27.08;100.00
60371;BME280;48550;40.588;49.684;2023-07-16T06:29:52;101318.06;;;28.16;100.00
60371;BME280;48550;40.588;49.684;2023-07-16T06:32:17;101305.47;;;27.57;100.00
60371;BME280;48550;40.588;49.684;2023-07-16T06:34:43;101307.47;;;27.77;100.00
60371;BME280;48550;40.588;49.684;2023-07-16T06:37:09;101305.63;;;29.55;100.00
60371;BME280;48550;40.588;49.684;2023-07-16T06:39:35;101293.38;;;29.31;100.00
60371;BME280;48550;40.588;49.684;2023-07-16T06:42:00;101301.47;;;29.85;100.00
60371;BME280;48550;40.588;49.684;2023-07-16T06:44:26;101295.47;;;28.77;100.00
60371;BME280;48550;40.588;49.684;2023-07-16T06:46:52;101303.97;;;28.39;100.00
60371;BME280;48550;40.588;49.684;2023-07-16T06:49:18;101301.72;;;28.86;100.00
60371;BME280;48550;40.588;49.684;2023-07-16T06:51:44;101314.00;;;28.43;100.00
60371;BME280;48550;40.588;49.684;2023-07-16T06:54:10;101313.56;;;27.91;100.00
60371;BME280;48550;40.588;49.684;2023-07-16T06:56:36;101316.22;;;27.79;100.00
60371;BME280;48550;40.588;49.684;2023-07-16T06:59:01;101309.03;;;27.66;100.00
60371;BME280;48550;40.588;49.684;2023-07-16T07:01:27;101313.00;;;27.77;100.00
60371;BME280;48550;40.588;49.684;2023-07-16T07:03:54;101317.78;;;27.89;100.00
60371;BME280;48550;40.588;49.684;2023-07-16T07:06:20;101316.69;;;28.85;100.00
60371;BME280;48550;40.588;49.684;2023-07-16T07:08:46;101319.50;;;28.76;100.00
60371;BME280;48550;40.588;49.684;2023-07-16T07:11:13;101315.16;;;30.06;100.00
60371;BME280;48550;40.588;49.684;2023-07-16T07:13:38;101325.78;;;31.47;91.08
60371;BME280;48550;40.588;49.684;2023-07-16T07:16:04;101327.84;;;32.01;78.63
60371;BME280;48550;40.588;49.684;2023-07-16T07:18:30;101330.28;;;32.03;72.59
60371;BME280;48550;40.588;49.684;2023-07-16T07:20:56;101328.72;;;31.70;77.12
60371;BME280;48550;40.588;49.684;2023-07-16T07:23:21;101321.66;;;30.66;86.35
60371;BME280;48550;40.588;49.684;2023-07-16T07:25:50;101312.88;;;32.06;76.41
60371;BME280;48550;40.588;49.684;2023-07-16T07:28:16;101323.84;;;32.95;65.73
60371;BME280;48550;40.588;49.684;2023-07-16T07:30:42;101325.53;;;32.61;67.83
60371;BME280;48550;40.588;49.684;2023-07-16T07:33:09;101320.66;;;32.74;68.69
60371;BME280;48550;40.588;49.684;2023-07-16T07:35:34;101321.22;;;31.71;74.83
60371;BME280;48550;40.588;49.684;2023-07-16T07:38:00;101331.59;;;31.42;78.66
60371;BME280;48550;40.588;49.684;2023-07-16T07:40:26;101335.19;;;30.55;87.05
60371;BME280;48550;40.588;49.684;2023-07-16T07:42:52;101332.03;;;30.29;90.69
60371;BME280;48550;40.588;49.684;2023-07-16T07:45:18;101339.47;;;30.13;91.45
60371;BME280;48550;40.588;49.684;2023-07-16T07:47:43;101333.03;;;29.35;100.00
60371;BME280;48550;40.588;49.684;2023-07-16T07:50:09;101331.84;;;28.79;100.00
60371;BME280;48550;40.588;49.684;2023-07-16T07:52:35;101338.47;;;29.81;98.83
60371;BME280;48550;40.588;49.684;2023-07-16T07:55:01;101323.13;;;29.34;92.31
60371;BME280;48550;40.588;49.684;2023-07-16T07:57:27;101334.25;;;30.63;76.85
60371;BME280;48550;40.588;49.684;2023-07-16T07:59:52;101321.84;;;30.05;91.54
60371;BME280;48550;40.588;49.684;2023-07-16T08:02:23;101321.66;;;28.59;100.00
60371;BME280;48550;40.588;49.684;2023-07-16T08:04:52;101321.38;;;29.05;100.00
60371;BME280;48550;40.588;49.684;2023-07-16T08:07:19;101311.41;;;28.92;100.00
60371;BME280;48550;40.588;49.684;2023-07-16T08:09:46;101310.28;;;28.72;100.00
60371;BME280;48550;40.588;49.684;2023-07-16T08:12:12;101318.59;;;28.72;100.00
60371;BME280;48550;40.588;49.684;2023-07-16T08:14:38;101309.88;;;29.28;100.00
60371;BME280;48550;40.588;49.684;2023-07-16T08:17:04;101312.88;;;29.47;100.00
60371;BME280;48550;40.588;49.684;2023-07-16T08:19:30;101319.44;;;29.30;100.00
60371;BME280;48550;40.588;49.684;2023-07-16T08:21:56;101312.72;;;29.07;100.00
60371;BME280;48550;40.588;49.684;2023-07-16T08:24:21;101311.09;;;28.73;100.00
60371;BME280;48550;40.588;49.684;2023-07-16T08:26:47;101317.88;;;28.63;100.00
60371;BME280;48550;40.588;49.684;2023-07-16T08:29:13;101317.34;;;29.15;100.00
60371;BME280;48550;40.588;49.684;2023-07-16T08:31:39;101301.69;;;29.19;100.00
60371;BME280;48550;40.588;49.684;2023-07-16T08:34:05;101294.78;;;28.80;100.00
60371;BME280;48550;40.588;49.684;2023-07-16T08:36:32;101299.84;;;29.35;100.00
60371;BME280;48550;40.588;49.684;2023-07-16T08:38:58;101299.31;;;28.85;100.00
60371;BME280;48550;40.588;49.684;2023-07-16T08:41:24;101288.31;;;29.09;100.00
60371;BME280;48550;40.588;49.684;2023-07-16T08:43:51;101280.50;;;29.11;100.00
60371;BME280;48550;40.588;49.684;2023-07-16T08:46:16;101283.00;;;29.04;100.00
60371;BME280;48550;40.588;49.684;2023-07-16T08:48:42;101280.84;;;28.76;100.00
60371;BME280;48550;40.588;49.684;2023-07-16T08:51:10;101283.41;;;28.48;100.00
60371;BME280;48550;40.588;49.684;2023-07-16T08:53:37;101286.09;;;28.57;100.00
60371;BME280;48550;40.588;49.684;2023-07-16T08:56:03;101287.06;;;28.40;100.00
60371;BME280;48550;40.588;49.684;2023-07-16T08:58:31;101290.66;;;28.86;100.00
60371;BME280;48550;40.588;49.684;2023-07-16T09:00:57;101286.75;;;28.87;100.00
60371;BME280;48550;40.588;49.684;2023-07-16T09:03:23;101287.38;;;28.72;100.00
60371;BME280;48550;40.588;49.684;2023-07-16T09:05:49;101281.13;;;28.84;100.00
60371;BME280;48550;40.588;49.684;2023-07-16T09:08:15;101282.38;;;28.86;97.22
60371;BME280;48550;40.588;49.684;2023-07-16T09:10:41;101279.22;;;28.75;100.00
60371;BME280;48550;40.588;49.684;2023-07-16T09:13:07;101263.94;;;28.45;96.23
60371;BME280;48550;40.588;49.684;2023-07-16T09:15:33;101268.78;;;28.48;100.00
60371;BME280;48550;40.588;49.684;2023-07-16T09:18:00;101274.63;;;28.34;100.00
60371;BME280;48550;40.588;49.684;2023-07-16T09:20:26;101285.44;;;27.98;100.00
60371;BME280;48550;40.588;49.684;2023-07-16T09:22:56;101263.81;;;27.20;100.00
60371;BME280;48550;40.588;49.684;2023-07-16T09:25:29;101259.31;;;27.74;100.00
60371;BME280;48550;40.588;49.684;2023-07-16T09:27:55;101267.31;;;27.88;100.00
60371;BME280;48550;40.588;49.684;2023-07-16T09:30:21;101274.19;;;27.82;100.00
60371;BME280;48550;40.588;49.684;2023-07-16T09:32:46;101280.25;;;27.96;100.00
60371;BME280;48550;40.588;49.684;2023-07-16T09:35:14;101263.81;;;28.21;100.00
60371;BME280;48550;40.588;49.684;2023-07-16T09:37:43;101277.91;;;27.48;100.00
60371;BME280;48550;40.588;49.684;2023-07-16T09:40:12;101260.19;;;26.73;100.00
60371;BME280;48550;40.588;49.684;2023-07-16T09:42:42;101271.91;;;26.61;100.00
60371;BME280;48550;40.588;49.684;2023-07-16T09:45:16;101267.53;;;26.60;100.00
60371;BME280;48550;40.588;49.684;2023-07-16T09:47:43;101267.28;;;27.00;100.00
60371;BME280;48550;40.588;49.684;2023-07-16T09:50:09;101272.00;;;26.99;100.00
60371;BME280;48550;40.588;49.684;2023-07-16T09:52:35;101257.16;;;27.21;100.00
60371;BME280;48550;40.588;49.684;2023-07-16T09:55:02;101271.94;;;27.46;100.00
60371;BME280;48550;40.588;49.684;2023-07-16T09:57:32;101265.78;;;27.11;100.00
60371;BME280;48550;40.588;49.684;2023-07-16T10:00:02;101253.81;;;27.36;100.00
60371;BME280;48550;40.588;49.684;2023-07-16T10:02:33;101257.19;;;27.50;100.00
60371;BME280;48550;40.588;49.684;2023-07-16T10:04:59;101268.84;;;27.47;100.00
60371;BME280;48550;40.588;49.684;2023-07-16T10:07:25;101274.38;;;27.77;100.00
60371;BME280;48550;40.588;49.684;2023-07-16T10:09:56;101269.47;;;27.62;100.00
60371;BME280;48550;40.588;49.684;2023-07-16T10:12:26;101267.19;;;27.55;100.00
60371;BME280;48550;40.588;49.684;2023-07-16T10:14:54;101275.00;;;27.53;100.00
60371;BME280;48550;40.588;49.684;2023-07-16T10:17:26;101271.59;;;27.47;100.00
60371;BME280;48550;40.588;49.684;2023-07-16T10:20:05;101264.09;;;27.65;100.00
60371;BME280;48550;40.588;49.684;2023-07-16T10:22:40;101263.28;;;27.27;100.00
60371;BME280;48550;40.588;49.684;2023-07-16T10:25:10;101264.19;;;27.39;100.00
60371;BME280;48550;40.588;49.684;2023-07-16T10:27:49;101262.75;;;27.33;100.00
60371;BME280;48550;40.588;49.684;2023-07-16T10:30:15;101267.56;;;27.45;100.00
60371;BME280;48550;40.588;49.684;2023-07-16T10:32:41;101268.38;;;27.45;100.00
60371;BME280;48550;40.588;49.684;2023-07-16T10:35:08;101262.47;;;27.85;100.00
60371;BME280;48550;40.588;49.684;2023-07-16T10:37:34;101265.72;;;27.58;100.00
60371;BME280;48550;40.588;49.684;2023-07-16T10:40:01;101255.69;;;27.62;100.00
60371;BME280;48550;40.588;49.684;2023-07-16T10:42:31;101259.88;;;27.30;100.00
60371;BME280;48550;40.588;49.684;2023-07-16T10:44:59;101260.56;;;27.47;100.00
60371;BME280;48550;40.588;49.684;2023-07-16T10:47:33;101251.59;;;27.30;100.00
60371;BME280;48550;40.588;49.684;2023-07-16T10:49:59;101255.81;;;27.65;100.00
60371;BME280;48550;40.588;49.684;2023-07-16T10:52:26;101257.34;;;27.45;100.00
60371;BME280;48550;40.588;49.684;2023-07-16T10:54:52;101255.81;;;27.65;100.00
60371;BME280;48550;40.588;49.684;2023-07-16T10:57:24;101256.03;;;27.51;100.00
60371;BME280;48550;40.588;49.684;2023-07-16T10:59:55;101260.28;;;27.40;100.00
60371;BME280;48550;40.588;49.684;2023-07-16T11:02:22;101253.69;;;27.33;100.00
60371;BME280;48550;40.588;49.684;2023-07-16T11:04:49;101261.16;;;27.32;100.00
60371;BME280;48550;40.588;49.684;2023-07-16T11:07:15;101255.16;;;27.30;100.00
60371;BME280;48550;40.588;49.684;2023-07-16T11:09:48;101256.38;;;27.12;100.00
60371;BME280;48550;40.588;49.684;2023-07-16T11:12:15;101246.59;;;26.68;100.00
60371;BME280;48550;40.588;49.684;2023-07-16T11:14:49;101251.78;;;26.78;100.00
60371;BME280;48550;40.588;49.684;2023-07-16T11:17:15;101244.78;;;26.89;100.00
60371;BME280;48550;40.588;49.684;2023-07-16T11:19:45;101257.72;;;26.97;100.00
60371;BME280;48550;40.588;49.684;2023-07-16T11:22:11;101245.66;;;27.19;100.00
60371;BME280;48550;40.588;49.684;2023-07-16T11:24:45;101245.88;;;27.35;100.00
60371;BME280;48550;40.588;49.684;2023-07-16T11:27:31;101236.63;;;27.39;100.00
60371;BME280;48550;40.588;49.684;2023-07-16T11:29:58;101240.56;;;27.59;100.00
60371;BME280;48550;40.588;49.684;2023-07-16T11:32:42;101254.81;;;27.70;100.00
60371;BME280;48550;40.588;49.684;2023-07-16T11:35:15;101253.75;;;27.53;100.00
60371;BME280;48550;40.588;49.684;2023-07-16T11:37:42;101254.59;;;27.45;100.00
60371;BME280;48550;40.588;49.684;2023-07-16T11:40:09;101262.84;;;27.54;100.00
60371;BME280;48550;40.588;49.684;2023-07-16T11:42:38;101261.47;;;27.01;100.00
60371;BME280;48550;40.588;49.684;2023-07-16T11:45:14;101258.72;;;27.31;100.00
60371;BME280;48550;40.588;49.684;2023-07-16T11:47:39;101260.19;;;27.28;100.00
60371;BME280;48550;40.588;49.684;2023-07-16T11:50:06;101267.13;;;27.05;100.00
60371;BME280;48550;40.588;49.684;2023-07-16T11:52:32;101260.66;;;27.01;100.00
60371;BME280;48550;40.588;49.684;2023-07-16T11:54:58;101265.03;;;27.02;100.00
60371;BME280;48550;40.588;49.684;2023-07-16T11:57:29;101258.47;;;27.15;100.00
60371;BME280;48550;40.588;49.684;2023-07-16T11:59:55;101253.34;;;27.05;100.00
60371;BME280;48550;40.588;49.684;2023-07-16T12:02:22;101256.91;;;26.97;100.00
60371;BME280;48550;40.588;49.684;2023-07-16T12:04:48;101257.91;;;27.01;100.00
60371;BME280;48550;40.588;49.684;2023-07-16T12:07:14;101250.00;;;26.73;100.00
60371;BME280;48550;40.588;49.684;2023-07-16T12:09:40;101252.97;;;27.15;100.00
60371;BME280;48550;40.588;49.684;2023-07-16T12:12:06;101243.31;;;27.00;100.00
60371;BME280;48550;40.588;49.684;2023-07-16T12:14:32;101254.34;;;27.30;100.00
60371;BME280;48550;40.588;49.684;2023-07-16T12:16:58;101257.53;;;27.11;100.00
60371;BME280;48550;40.588;49.684;2023-07-16T12:19:24;101260.34;;;26.85;100.00
60371;BME280;48550;40.588;49.684;2023-07-16T12:21:50;101254.03;;;26.84;100.00
60371;BME280;48550;40.588;49.684;2023-07-16T12:24:16;101268.25;;;26.95;100.00
60371;BME280;48550;40.588;49.684;2023-07-16T12:26:42;101258.09;;;27.25;100.00
60371;BME280;48550;40.588;49.684;2023-07-16T12:29:09;101264.38;;;27.34;100.00
60371;BME280;48550;40.588;49.684;2023-07-16T12:31:35;101268.31;;;27.63;100.00
60371;BME280;48550;40.588;49.684;2023-07-16T12:34:01;101273.25;;;27.10;100.00
60371;BME280;48550;40.588;49.684;2023-07-16T12:36:30;101271.34;;;27.02;100.00